Time;durP1;ratioP1;P1;durP2;ratioP2;P2;SDS_P1;SDS_P2;PMS_P1;PMS_P2;Temp;Humidity;BMP_temperature;BMP_pressure;BME280_temperature;BME280_humidity;BME280_pressure;Samples;Min_cycle;Max_cycle;Signal;HPM_P1;HPM_P2
2022/11/29 00:01:03;;;;;;;18.00;16.27;;;7.70;99.90;;;;;;4986575;28;21001;-65
2022/11/29 00:03:29;;;;;;;19.27;16.70;;;7.70;99.90;;;;;;4985797;28;20573;-66
2022/11/29 00:05:55;;;;;;;18.77;16.67;;;7.70;99.90;;;;;;4981573;28;20442;-65
2022/11/29 00:08:22;;;;;;;21.47;16.40;;;7.60;99.90;;;;;;4983038;28;20894;-66
2022/11/29 00:10:48;;;;;;;17.60;15.80;;;7.60;99.90;;;;;;4987820;28;20443;-66
2022/11/29 00:13:14;;;;;;;17.77;15.73;;;7.60;99.90;;;;;;4979827;28;20485;-65
2022/11/29 00:15:40;;;;;;;20.07;17.60;;;7.60;99.90;;;;;;4986513;28;20446;-66
2022/11/29 00:18:06;;;;;;;18.63;15.20;;;7.60;99.90;;;;;;4978045;28;20570;-69
2022/11/29 00:20:33;;;;;;;17.83;15.90;;;7.60;99.90;;;;;;4982869;28;20176;-67
2022/11/29 00:22:58;;;;;;;22.03;17.00;;;7.60;99.90;;;;;;4974691;28;20474;-65
2022/11/29 00:25:24;;;;;;;18.00;16.10;;;7.60;99.90;;;;;;4981661;28;20443;-67
2022/11/29 00:27:50;;;;;;;19.93;17.70;;;7.50;99.90;;;;;;4987176;28;20222;-65
2022/11/29 00:30:16;;;;;;;19.20;16.67;;;7.50;99.90;;;;;;4980940;28;20176;-65
2022/11/29 00:32:42;;;;;;;18.17;15.93;;;7.40;99.90;;;;;;4987361;28;20491;-65
2022/11/29 00:35:07;;;;;;;18.33;16.23;;;7.40;99.90;;;;;;4983375;28;20477;-65
2022/11/29 00:37:33;;;;;;;18.70;16.23;;;7.40;99.90;;;;;;4986001;28;20647;-66
2022/11/29 00:39:58;;;;;;;19.83;16.97;;;7.40;99.90;;;;;;4982447;28;20188;-66
2022/11/29 00:42:24;;;;;;;21.37;17.20;;;7.50;99.90;;;;;;4973805;28;20200;-65
2022/11/29 00:44:49;;;;;;;19.17;16.13;;;7.40;99.90;;;;;;4988118;28;20180;-65
2022/11/29 00:47:15;;;;;;;19.43;17.50;;;7.50;99.90;;;;;;4980029;28;20211;-65
2022/11/29 00:49:41;;;;;;;17.13;15.43;;;7.40;99.90;;;;;;4980098;28;20216;-66
2022/11/29 00:52:06;;;;;;;22.30;16.53;;;7.40;99.90;;;;;;4977340;28;20263;-70
2022/11/29 00:54:32;;;;;;;17.70;15.93;;;7.40;99.90;;;;;;4978777;28;20183;-65
2022/11/29 00:56:57;;;;;;;20.20;16.40;;;7.50;99.90;;;;;;4979208;28;20263;-66
2022/11/29 00:59:23;;;;;;;17.37;15.50;;;7.40;99.90;;;;;;4976979;28;20527;-66
2022/11/29 01:01:48;;;;;;;16.73;14.60;;;7.50;99.90;;;;;;4984354;28;20176;-65
2022/11/29 01:04:14;;;;;;;17.10;15.50;;;7.50;99.90;;;;;;4985496;28;20199;-66
2022/11/29 01:06:40;;;;;;;18.30;14.70;;;7.60;99.90;;;;;;4984332;28;20183;-65
2022/11/29 01:09:05;;;;;;;16.17;14.57;;;7.60;99.90;;;;;;4977135;28;20186;-67
2022/11/29 01:11:31;;;;;;;18.97;17.00;;;7.60;99.90;;;;;;4980949;28;20184;-65
2022/11/29 01:13:59;;;;;;;16.10;14.40;;;7.60;99.90;;;;;;5003294;23;20214;-67
2022/11/29 01:16:26;;;;;;;16.40;14.73;;;7.70;99.90;;;;;;4992594;28;20711;-68
2022/11/29 01:18:51;;;;;;;13.47;12.23;;;7.70;99.90;;;;;;4993319;28;20456;-70
2022/11/29 01:21:20;;;;;;;16.47;14.80;;;7.70;99.90;;;;;;4992401;28;21757;-67
2022/11/29 01:23:47;;;;;;;15.83;14.20;;;7.70;99.90;;;;;;4992250;28;20246;-70
2022/11/29 01:26:16;;;;;;;15.17;13.47;;;7.80;99.90;;;;;;4994043;28;20514;-67
2022/11/29 01:28:44;;;;;;;14.40;12.90;;;7.80;99.90;;;;;;4992497;28;20442;-68
2022/11/29 01:31:12;;;;;;;18.10;14.90;;;7.80;99.90;;;;;;4996903;28;20799;-67
2022/11/29 01:33:38;;;;;;;17.43;13.83;;;7.80;99.90;;;;;;4994691;28;20505;-68
2022/11/29 01:36:05;;;;;;;14.83;13.27;;;7.70;99.90;;;;;;5000165;28;20430;-68
2022/11/29 01:38:31;;;;;;;15.70;12.87;;;7.80;99.90;;;;;;5001781;28;20684;-68
2022/11/29 01:41:10;;;;;;;14.20;12.70;;;7.80;99.90;;;;;;5008251;28;20484;-68
2022/11/29 01:43:56;;;;;;;13.27;11.97;;;7.80;99.90;;;;;;5002786;28;20453;-68
2022/11/29 01:46:22;;;;;;;16.17;13.10;;;7.80;99.90;;;;;;4992687;28;21058;-68
2022/11/29 01:48:48;;;;;;;15.80;12.57;;;7.80;99.90;;;;;;4998550;28;20493;-68
2022/11/29 01:51:14;;;;;;;15.33;12.70;;;7.80;99.90;;;;;;4999945;28;20182;-68
2022/11/29 01:53:40;;;;;;;14.70;12.77;;;7.70;99.90;;;;;;5002812;28;21001;-68
2022/11/29 01:56:06;;;;;;;13.97;12.53;;;7.70;99.90;;;;;;5002768;28;20221;-68
2022/11/29 01:58:33;;;;;;;14.37;12.20;;;7.70;99.90;;;;;;4995534;28;20947;-67
2022/11/29 02:01:00;;;;;;;14.20;11.53;;;7.60;99.90;;;;;;4995008;28;20982;-70
2022/11/29 02:03:26;;;;;;;12.03;10.83;;;7.60;99.90;;;;;;4996407;28;20873;-68
2022/11/29 02:05:53;;;;;;;17.43;11.73;;;7.60;99.90;;;;;;4999021;28;20525;-68
2022/11/29 02:08:32;;;;;;;13.10;11.83;;;7.50;99.90;;;;;;4990533;28;20660;-67
2022/11/29 02:11:21;;;;;;;12.27;10.97;;;7.60;99.90;;;;;;5002304;28;20499;-72
2022/11/29 02:14:15;;;;;;;13.40;11.87;;;7.60;99.90;;;;;;5007013;28;20962;-68
2022/11/29 02:17:08;;;;;;;12.13;10.90;;;7.70;99.90;;;;;;4998144;28;20461;-68
2022/11/29 02:19:52;;;;;;;10.60;9.50;;;7.70;99.90;;;;;;4997915;28;20842;-67
2022/11/29 02:22:31;;;;;;;11.00;9.90;;;7.70;99.90;;;;;;5001045;28;21055;-68
2022/11/29 02:25:32;;;;;;;10.83;9.90;;;7.80;99.90;;;;;;4995159;28;20445;-67
2022/11/29 02:28:24;;;;;;;12.10;10.80;;;7.80;99.90;;;;;;4997699;28;20456;-67
2022/11/29 02:31:14;;;;;;;10.60;9.57;;;7.80;99.90;;;;;;4998177;28;20454;-67
2022/11/29 02:33:58;;;;;;;10.83;9.83;;;7.80;99.90;;;;;;4997137;28;20473;-68
2022/11/29 02:36:44;;;;;;;10.37;9.37;;;7.80;99.90;;;;;;4993021;28;20446;-68
2022/11/29 02:39:49;;;;;;;10.00;9.10;;;7.80;99.90;;;;;;4988096;28;20479;-68
2022/11/29 02:42:47;;;;;;;10.17;9.17;;;7.80;99.90;;;;;;4994557;28;21197;-69
2022/11/29 02:45:27;;;;;;;10.37;8.53;;;7.80;99.90;;;;;;4992654;28;20442;-69
2022/11/29 02:48:07;;;;;;;10.40;9.10;;;7.70;99.90;;;;;;4993615;28;20799;-68
2022/11/29 02:50:51;;;;;;;9.67;8.73;;;7.70;99.90;;;;;;5001211;28;20850;-69
2022/11/29 02:53:24;;;;;;;11.60;8.17;;;7.80;99.90;;;;;;4988857;28;20504;-68
2022/11/29 02:56:27;;;;;;;9.47;8.20;;;7.70;99.90;;;;;;5002925;28;20468;-69
2022/11/29 02:59:03;;;;;;;10.07;9.13;;;7.70;99.90;;;;;;4998291;28;20577;-68
2022/11/29 03:01:32;;;;;;;9.97;8.97;;;7.60;99.90;;;;;;4990258;28;20469;-68
2022/11/29 03:04:04;;;;;;;11.80;7.73;;;7.70;99.90;;;;;;4984039;28;20462;-69
2022/11/29 03:06:44;;;;;;;10.17;8.67;;;7.70;99.90;;;;;;4992045;28;20492;-68
2022/11/29 03:09:41;;;;;;;9.67;8.73;;;7.70;99.90;;;;;;4985455;28;20878;-68
2022/11/29 03:12:25;;;;;;;9.77;8.77;;;7.70;99.90;;;;;;4989471;28;20441;-68
2022/11/29 03:14:56;;;;;;;8.80;7.87;;;7.70;99.90;;;;;;4990709;28;20831;-69
2022/11/29 03:17:22;;;;;;;9.57;8.60;;;7.80;99.90;;;;;;4991518;28;20473;-68
2022/11/29 03:20:27;;;;;;;8.43;6.87;;;7.80;99.90;;;;;;4990708;28;20426;-68
2022/11/29 03:23:11;;;;;;;8.00;7.20;;;7.80;99.90;;;;;;4990784;28;20587;-68
2022/11/29 03:25:52;;;;;;;9.13;8.10;;;7.80;99.90;;;;;;4991146;28;20536;-69
2022/11/29 03:28:32;;;;;;;8.37;7.57;;;7.80;99.90;;;;;;4989845;28;20537;-69
2022/11/29 03:31:05;;;;;;;9.30;8.40;;;7.80;99.90;;;;;;4998872;28;20529;-69
2022/11/29 03:33:45;;;;;;;10.67;9.67;;;7.90;99.90;;;;;;4998417;28;20454;-69
2022/11/29 03:36:34;;;;;;;11.57;10.27;;;7.90;99.90;;;;;;4992742;28;20445;-68
2022/11/29 03:39:04;;;;;;;12.17;10.87;;;7.80;99.90;;;;;;4989757;28;20481;-68
2022/11/29 03:41:54;;;;;;;11.80;10.27;;;7.80;99.90;;;;;;4998545;28;20430;-69
2022/11/29 03:44:30;;;;;;;10.10;9.10;;;7.90;99.90;;;;;;4994350;28;20804;-68
2022/11/29 03:47:03;;;;;;;9.33;8.50;;;7.80;99.90;;;;;;4993019;28;20487;-68
2022/11/29 03:49:47;;;;;;;9.97;9.00;;;7.80;99.90;;;;;;4998921;28;20437;-68
2022/11/29 03:52:22;;;;;;;10.10;9.10;;;7.80;99.90;;;;;;4982316;28;20803;-68
2022/11/29 03:55:18;;;;;;;9.33;8.37;;;7.80;99.90;;;;;;4994890;28;20509;-68
2022/11/29 03:57:56;;;;;;;10.47;9.07;;;7.90;99.90;;;;;;4995882;28;20471;-68
2022/11/29 04:00:22;;;;;;;10.50;8.83;;;7.90;99.90;;;;;;4985517;28;20505;-69
2022/11/29 04:02:51;;;;;;;8.70;7.90;;;7.80;99.90;;;;;;4990483;28;20458;-69
2022/11/29 04:05:16;;;;;;;8.83;8.03;;;7.80;99.90;;;;;;4993337;28;20832;-68
2022/11/29 04:08:12;;;;;;;9.07;8.20;;;7.80;99.90;;;;;;4993809;28;20435;-68
2022/11/29 04:11:07;;;;;;;10.73;9.53;;;7.90;99.90;;;;;;4994928;28;20183;-68
2022/11/29 04:13:59;;;;;;;9.97;8.93;;;7.90;99.90;;;;;;4971564;28;20905;-68
2022/11/29 04:16:58;;;;;;;9.23;8.40;;;7.90;99.90;;;;;;4993765;28;20434;-69
2022/11/29 04:19:30;;;;;;;8.77;8.03;;;7.90;99.90;;;;;;5000135;28;20495;-68
2022/11/29 04:22:18;;;;;;;10.80;9.73;;;7.90;99.90;;;;;;4993484;28;20437;-68
2022/11/29 04:25:30;;;;;;;10.77;9.67;;;7.90;99.90;;;;;;4993358;28;20453;-69
2022/11/29 04:28:05;;;;;;;11.37;8.77;;;7.90;99.90;;;;;;5002474;28;20965;-68
2022/11/29 04:30:47;;;;;;;9.73;8.83;;;7.90;99.90;;;;;;5003043;28;20449;-68
2022/11/29 04:33:44;;;;;;;9.87;8.93;;;7.90;99.90;;;;;;4998143;28;20982;-68
2022/11/29 04:36:32;;;;;;;9.57;8.67;;;7.90;99.90;;;;;;4992097;28;20500;-68
2022/11/29 04:39:00;;;;;;;8.97;8.20;;;7.90;99.90;;;;;;4995686;28;20827;-68
2022/11/29 04:41:53;;;;;;;12.10;8.80;;;8.00;99.90;;;;;;4993532;28;20434;-68
2022/11/29 04:44:26;;;;;;;10.27;9.27;;;7.90;99.90;;;;;;5001116;28;20480;-69
2022/11/29 04:47:02;;;;;;;8.77;7.97;;;7.90;99.90;;;;;;5000521;28;20435;-68
2022/11/29 04:49:55;;;;;;;9.23;8.03;;;7.80;99.90;;;;;;5003828;28;20492;-68
2022/11/29 04:52:41;;;;;;;9.70;8.80;;;7.90;99.90;;;;;;4997696;28;20486;-68
2022/11/29 04:55:27;;;;;;;9.13;8.23;;;7.90;99.90;;;;;;4996692;28;20439;-68
2022/11/29 04:58:07;;;;;;;10.30;8.10;;;7.90;99.90;;;;;;5033252;28;20494;-68
2022/11/29 05:01:02;;;;;;;7.30;6.70;;;7.90;99.90;;;;;;4997135;28;20441;-68
2022/11/29 05:04:02;;;;;;;7.13;6.43;;;8.00;99.90;;;;;;4991284;28;20549;-68
2022/11/29 05:06:48;;;;;;;7.00;6.20;;;7.90;99.90;;;;;;4977247;28;20442;-69
2022/11/29 05:09:20;;;;;;;7.40;6.13;;;7.80;99.90;;;;;;4990370;28;20435;-67
2022/11/29 05:11:49;;;;;;;6.70;6.00;;;7.80;99.90;;;;;;4993720;28;20447;-69
2022/11/29 05:14:44;;;;;;;6.37;5.77;;;7.80;99.90;;;;;;4993158;28;20470;-68
2022/11/29 05:17:47;;;;;;;6.97;6.03;;;7.80;99.90;;;;;;4989554;28;20844;-69
2022/11/29 05:20:34;;;;;;;5.63;5.00;;;7.90;99.90;;;;;;4991111;28;20975;-67
2022/11/29 05:23:37;;;;;;;5.70;5.10;;;7.80;99.90;;;;;;4990267;28;20512;-68
2022/11/29 05:26:15;;;;;;;6.57;6.00;;;7.90;99.90;;;;;;4985945;28;20462;-68
2022/11/29 05:28:57;;;;;;;6.90;5.30;;;7.80;99.90;;;;;;4992775;28;20438;-68
2022/11/29 05:31:54;;;;;;;5.50;5.00;;;7.80;99.90;;;;;;4991990;28;20826;-69
2022/11/29 05:34:57;;;;;;;6.57;5.97;;;7.90;99.90;;;;;;4988284;28;20462;-69
2022/11/29 05:37:43;;;;;;;5.97;5.33;;;7.90;99.90;;;;;;4995967;28;20481;-68
2022/11/29 05:40:31;;;;;;;7.10;6.50;;;7.90;99.90;;;;;;4989403;28;20796;-68
2022/11/29 05:43:17;;;;;;;6.43;5.83;;;7.80;99.90;;;;;;5000884;28;20512;-68
2022/11/29 05:46:01;;;;;;;6.10;5.60;;;7.80;99.90;;;;;;5001164;28;20469;-69
2022/11/29 05:48:49;;;;;;;12.33;6.03;;;7.80;99.90;;;;;;5000305;28;20509;-68
2022/11/29 05:51:49;;;;;;;6.73;6.13;;;7.80;99.90;;;;;;5001764;28;20434;-68
2022/11/29 05:54:40;;;;;;;6.10;5.60;;;7.80;99.90;;;;;;4999620;28;20469;-68
2022/11/29 05:57:37;;;;;;;6.80;6.00;;;7.80;99.90;;;;;;4999968;28;20524;-68
2022/11/29 06:00:05;;;;;;;7.33;5.67;;;7.80;99.90;;;;;;4997532;28;20436;-67
2022/11/29 06:02:58;;;;;;;7.60;6.80;;;7.90;99.90;;;;;;4992154;28;20832;-67
2022/11/29 06:05:53;;;;;;;11.03;8.70;;;7.90;99.90;;;;;;4991389;28;20470;-67
2022/11/29 06:08:33;;;;;;;7.60;6.80;;;8.00;99.90;;;;;;4995774;28;20443;-67
2022/11/29 06:11:13;;;;;;;12.73;6.30;;;8.00;99.90;;;;;;4992816;28;20497;-68
2022/11/29 06:13:59;;;;;;;10.70;6.10;;;8.00;99.90;;;;;;4990460;28;20561;-67
2022/11/29 06:16:34;;;;;;;7.40;6.70;;;7.90;99.90;;;;;;4992336;28;21030;-67
2022/11/29 06:19:18;;;;;;;6.03;5.53;;;7.90;99.90;;;;;;4982747;28;20521;-68
2022/11/29 06:21:59;;;;;;;7.10;6.50;;;7.80;99.90;;;;;;4990762;28;20926;-68
2022/11/29 06:24:24;;;;;;;6.80;6.10;;;7.80;99.90;;;;;;4987570;28;20543;-67
2022/11/29 06:27:14;;;;;;;8.73;7.93;;;7.90;99.90;;;;;;5005341;28;20979;-67
2022/11/29 06:29:52;;;;;;;7.20;6.10;;;7.90;99.90;;;;;;4990450;28;20219;-68
2022/11/29 06:32:39;;;;;;;7.23;6.17;;;7.90;99.90;;;;;;4989217;28;20450;-66
2022/11/29 06:35:25;;;;;;;5.90;5.30;;;7.90;99.90;;;;;;4984916;28;20508;-68
2022/11/29 06:37:57;;;;;;;7.07;6.43;;;7.90;99.90;;;;;;4991821;28;20867;-68
2022/11/29 06:40:23;;;;;;;6.73;5.77;;;7.90;99.90;;;;;;4991851;28;20450;-68
2022/11/29 06:42:48;;;;;;;6.53;5.93;;;7.90;99.90;;;;;;4993262;28;20553;-68
2022/11/29 06:45:14;;;;;;;6.60;6.00;;;8.00;99.90;;;;;;4993761;28;20441;-68
2022/11/29 06:47:51;;;;;;;7.00;6.30;;;8.00;99.90;;;;;;4992411;28;20646;-68
2022/11/29 06:50:41;;;;;;;6.27;5.67;;;8.00;99.90;;;;;;4998900;28;21706;-68
2022/11/29 06:53:16;;;;;;;10.60;6.50;;;8.10;99.90;;;;;;5000192;28;20492;-68
2022/11/29 06:56:25;;;;;;;8.40;7.50;;;8.10;99.90;;;;;;5001481;28;20504;-68
2022/11/29 06:58:57;;;;;;;9.40;8.43;;;8.10;99.90;;;;;;4992942;28;20948;-67
2022/11/29 07:01:27;;;;;;;15.70;11.00;;;8.10;99.90;;;;;;4999859;28;20975;-66
2022/11/29 07:04:39;;;;;;;13.00;9.83;;;8.20;99.90;;;;;;4989800;28;20540;-66
2022/11/29 07:07:19;;;;;;;8.93;8.13;;;8.20;99.90;;;;;;4996950;28;20442;-66
2022/11/29 07:09:48;;;;;;;10.40;8.00;;;8.20;99.90;;;;;;4991175;28;20445;-67
2022/11/29 07:12:14;;;;;;;8.97;8.03;;;8.20;99.90;;;;;;4989664;28;20493;-67
2022/11/29 07:14:40;;;;;;;9.13;8.23;;;8.20;99.90;;;;;;4993786;28;20505;-67
2022/11/29 07:17:38;;;;;;;8.43;7.53;;;8.30;99.90;;;;;;4999276;28;20870;-67
2022/11/29 07:20:25;;;;;;;8.50;7.70;;;8.30;99.90;;;;;;4986578;28;20811;-67
2022/11/29 07:23:10;;;;;;;8.20;7.40;;;8.30;99.90;;;;;;4992375;28;20849;-69
2022/11/29 07:25:47;;;;;;;10.27;7.70;;;8.20;99.90;;;;;;4992520;28;20415;-67
2022/11/29 07:28:24;;;;;;;7.60;6.90;;;8.30;99.90;;;;;;4992215;28;20410;-67
2022/11/29 07:31:11;;;;;;;7.93;7.23;;;8.30;99.90;;;;;;4992096;28;20426;-67
2022/11/29 07:34:03;;;;;;;7.63;6.93;;;8.40;99.90;;;;;;4992452;28;20449;-67
2022/11/29 07:36:32;;;;;;;8.07;7.27;;;8.40;99.90;;;;;;4992318;28;20442;-67
2022/11/29 07:39:39;;;;;;;8.20;7.40;;;8.40;99.90;;;;;;4993859;28;20417;-67
2022/11/29 07:42:23;;;;;;;7.37;6.70;;;8.40;99.90;;;;;;4996252;28;20406;-67
2022/11/29 07:45:10;;;;;;;6.70;6.10;;;8.40;99.90;;;;;;4996380;28;20951;-66
2022/11/29 07:47:36;;;;;;;7.43;6.73;;;8.50;99.90;;;;;;4996146;28;20417;-67
2022/11/29 07:50:01;;;;;;;8.23;7.40;;;8.40;99.90;;;;;;4995836;28;20422;-67
2022/11/29 07:52:27;;;;;;;8.67;7.77;;;8.30;99.90;;;;;;4995888;28;20245;-67
2022/11/29 07:54:53;;;;;;;8.30;6.90;;;8.30;99.90;;;;;;4995948;28;20633;-68
2022/11/29 07:57:18;;;;;;;9.70;7.90;;;8.40;99.90;;;;;;4988878;28;20458;-67
2022/11/29 07:59:44;;;;;;;10.20;8.67;;;8.40;99.90;;;;;;4968653;28;20187;-66
2022/11/29 08:02:10;;;;;;;11.90;10.70;;;8.40;99.90;;;;;;4981635;28;20180;-67
2022/11/29 08:04:45;;;;;;;10.33;8.17;;;8.50;99.90;;;;;;4993297;28;20230;-67
2022/11/29 08:07:11;;;;;;;11.63;8.00;;;8.50;99.90;;;;;;4994796;28;20461;-67
2022/11/29 08:09:36;;;;;;;7.87;6.80;;;8.60;99.90;;;;;;4994767;28;20812;-68
2022/11/29 08:12:02;;;;;;;10.50;7.23;;;8.60;99.90;;;;;;5024038;28;20175;-68
2022/11/29 08:14:32;;;;;;;10.93;9.60;;;8.60;99.90;;;;;;4991659;28;20242;-69
2022/11/29 08:16:57;;;;;;;8.87;8.07;;;8.60;99.90;;;;;;4994837;28;20199;-67
2022/11/29 08:19:23;;;;;;;13.23;10.77;;;8.60;99.90;;;;;;4995236;28;20758;-68
2022/11/29 08:21:49;;;;;;;8.40;7.60;;;8.60;99.90;;;;;;5001169;28;20178;-67
2022/11/29 08:24:15;;;;;;;8.77;7.87;;;8.60;99.90;;;;;;4997690;28;20196;-66
2022/11/29 08:26:41;;;;;;;9.87;8.60;;;8.70;99.90;;;;;;4995405;28;20549;-67
2022/11/29 08:29:06;;;;;;;10.07;8.17;;;8.60;99.90;;;;;;5003407;28;20179;-66
2022/11/29 08:31:32;;;;;;;7.50;6.67;;;8.60;99.90;;;;;;5013514;28;20258;-67
2022/11/29 08:33:57;;;;;;;7.80;7.10;;;8.60;99.90;;;;;;5006628;28;20194;-67
2022/11/29 08:36:23;;;;;;;7.20;6.50;;;8.70;99.90;;;;;;4994665;28;20205;-66
2022/11/29 08:38:48;;;;;;;6.37;5.77;;;8.70;99.90;;;;;;4994672;28;20637;-68
2022/11/29 08:41:16;;;;;;;6.77;6.20;;;8.60;99.90;;;;;;4994800;28;20211;-67
2022/11/29 08:43:42;;;;;;;6.90;5.93;;;8.60;99.90;;;;;;4994955;28;20595;-67
2022/11/29 08:46:08;;;;;;;6.87;6.20;;;8.50;99.90;;;;;;4995014;28;20414;-67
2022/11/29 08:48:35;;;;;;;6.70;6.10;;;8.60;99.90;;;;;;4993927;28;20435;-67
2022/11/29 08:51:02;;;;;;;6.90;5.30;;;8.70;99.90;;;;;;4994270;28;20802;-67
2022/11/29 08:53:45;;;;;;;6.40;5.80;;;8.70;99.90;;;;;;4994010;28;20455;-67
2022/11/29 08:56:19;;;;;;;5.50;5.00;;;8.80;99.90;;;;;;4975480;28;20517;-67
2022/11/29 08:58:45;;;;;;;6.20;5.60;;;8.80;99.90;;;;;;4990686;28;20454;-67
2022/11/29 09:01:16;;;;;;;8.03;7.33;;;8.90;99.90;;;;;;4994451;28;20427;-67
2022/11/29 09:03:58;;;;;;;6.83;6.03;;;8.80;99.90;;;;;;4994681;28;20966;-67
2022/11/29 09:06:25;;;;;;;4.83;4.40;;;8.80;99.90;;;;;;4994052;28;20423;-67
2022/11/29 09:08:52;;;;;;;4.80;4.40;;;8.80;99.90;;;;;;4994336;28;20995;-67
2022/11/29 09:11:20;;;;;;;4.23;3.83;;;8.90;99.90;;;;;;4994571;28;20415;-67
2022/11/29 09:13:48;;;;;;;5.00;4.50;;;8.90;99.90;;;;;;5003079;28;20470;-67
2022/11/29 09:16:17;;;;;;;4.30;3.90;;;8.90;99.90;;;;;;4994584;28;20452;-68
2022/11/29 09:18:42;;;;;;;4.83;4.43;;;8.90;99.90;;;;;;4993258;28;20469;-68
2022/11/29 09:21:12;;;;;;;4.77;4.00;;;8.90;99.90;;;;;;4994344;28;20423;-67
2022/11/29 09:23:40;;;;;;;4.50;4.00;;;8.90;99.90;;;;;;4994137;28;20849;-68
2022/11/29 09:26:07;;;;;;;3.87;3.47;;;8.90;99.90;;;;;;4993407;28;20423;-67
2022/11/29 09:28:33;;;;;;;4.03;3.73;;;8.80;99.90;;;;;;4993892;28;20554;-67
2022/11/29 09:31:07;;;;;;;3.87;3.57;;;8.90;99.90;;;;;;5002210;28;20430;-68
2022/11/29 09:33:33;;;;;;;4.10;3.80;;;8.80;99.90;;;;;;4974661;28;20467;-67
2022/11/29 09:36:00;;;;;;;7.53;4.27;;;8.90;99.90;;;;;;5023425;28;20791;-67
2022/11/29 09:38:26;;;;;;;5.90;5.40;;;8.90;99.90;;;;;;4992735;28;20466;-68
2022/11/29 09:41:33;;;;;;;7.90;4.43;;;8.90;99.90;;;;;;4993896;28;20425;-66
2022/11/29 09:44:15;;;;;;;5.70;4.70;;;8.90;99.90;;;;;;4987284;28;20195;-68
2022/11/29 09:46:50;;;;;;;9.80;7.10;;;8.80;99.90;;;;;;4993992;28;20411;-68
2022/11/29 09:49:31;;;;;;;5.70;5.20;;;8.90;99.90;;;;;;4993186;28;20415;-69
2022/11/29 09:52:09;;;;;;;9.60;7.30;;;8.90;99.90;;;;;;4986254;28;20468;-67
2022/11/29 09:55:03;;;;;;;8.60;6.50;;;8.80;99.90;;;;;;4993664;28;20437;-67
2022/11/29 09:57:31;;;;;;;9.00;7.80;;;8.80;99.90;;;;;;4992818;28;20569;-67
2022/11/29 10:00:03;;;;;;;10.90;9.50;;;8.70;99.90;;;;;;4993443;28;20443;-67
2022/11/29 10:02:46;;;;;;;9.13;8.23;;;8.70;99.90;;;;;;4991932;28;20936;-66
2022/11/29 10:05:23;;;;;;;9.00;7.87;;;8.70;99.90;;;;;;4974221;28;20901;-68
2022/11/29 10:08:02;;;;;;;11.00;8.93;;;8.80;99.90;;;;;;4975447;28;20415;-67
2022/11/29 10:10:40;;;;;;;8.70;7.80;;;8.80;99.90;;;;;;4991836;28;20429;-67
2022/11/29 10:13:33;;;;;;;7.73;6.90;;;8.90;99.90;;;;;;4993263;28;20453;-67
2022/11/29 10:16:19;;;;;;;8.43;7.23;;;8.90;99.90;;;;;;4992915;28;20427;-68
2022/11/29 10:19:00;;;;;;;8.40;7.47;;;8.90;99.90;;;;;;4992807;28;20458;-67
2022/11/29 10:21:35;;;;;;;8.87;7.93;;;9.00;99.90;;;;;;4992220;28;20441;-67
2022/11/29 10:24:05;;;;;;;7.10;6.30;;;8.90;99.90;;;;;;5024766;28;20952;-67
2022/11/29 10:26:31;;;;;;;8.50;7.60;;;9.00;99.90;;;;;;4992693;28;20936;-67
2022/11/29 10:28:57;;;;;;;8.87;7.80;;;8.90;99.90;;;;;;4992353;28;20434;-67
2022/11/29 10:31:30;;;;;;;8.70;7.57;;;8.90;99.90;;;;;;4993042;28;20450;-69
2022/11/29 10:33:59;;;;;;;9.87;8.47;;;8.90;99.90;;;;;;4992158;28;20191;-67
2022/11/29 10:36:38;;;;;;;9.73;8.73;;;8.80;99.90;;;;;;4992925;28;20419;-67
2022/11/29 10:39:09;;;;;;;8.10;7.17;;;8.70;99.90;;;;;;4992608;28;20434;-67
2022/11/29 10:41:35;;;;;;;8.23;7.23;;;8.80;99.90;;;;;;4992106;28;20838;-66
2022/11/29 10:44:01;;;;;;;12.03;9.47;;;8.80;99.90;;;;;;4992888;28;20466;-67
2022/11/29 10:46:32;;;;;;;12.10;9.00;;;8.80;99.90;;;;;;4992467;28;20589;-66
2022/11/29 10:48:59;;;;;;;9.70;8.70;;;8.80;99.90;;;;;;4995965;28;20454;-67
2022/11/29 10:51:25;;;;;;;10.53;9.37;;;8.80;99.90;;;;;;5001602;28;20477;-67
2022/11/29 10:53:56;;;;;;;8.40;7.00;;;8.90;99.90;;;;;;4997612;28;21236;-68
2022/11/29 10:56:29;;;;;;;8.97;8.03;;;8.90;99.90;;;;;;4993001;28;20164;-67
2022/11/29 10:59:08;;;;;;;9.47;8.30;;;8.80;99.90;;;;;;4991295;28;20448;-69
2022/11/29 11:01:39;;;;;;;9.70;8.17;;;8.80;99.90;;;;;;5009169;28;20427;-66
2022/11/29 11:04:08;;;;;;;14.63;10.80;;;8.80;99.90;;;;;;5003354;28;20991;-67
2022/11/29 11:06:51;;;;;;;10.73;8.70;;;9.00;99.90;;;;;;4992183;28;20433;-66
2022/11/29 11:09:33;;;;;;;8.80;7.13;;;9.00;99.90;;;;;;4992132;28;20513;-67
2022/11/29 11:12:05;;;;;;;9.53;7.57;;;9.00;99.90;;;;;;4991930;28;20932;-67
2022/11/29 11:14:36;;;;;;;9.77;8.33;;;9.00;99.90;;;;;;4995207;28;20520;-67
2022/11/29 11:17:24;;;;;;;9.80;8.80;;;8.90;99.90;;;;;;4996163;28;20549;-67
2022/11/29 11:19:59;;;;;;;9.73;8.47;;;8.90;99.90;;;;;;4995748;28;20426;-67
2022/11/29 11:22:27;;;;;;;9.83;8.13;;;9.00;99.90;;;;;;4994118;28;20930;-67
2022/11/29 11:25:02;;;;;;;11.97;8.53;;;9.00;99.90;;;;;;4996873;28;20435;-66
2022/11/29 11:27:38;;;;;;;11.77;9.90;;;9.00;99.90;;;;;;4996400;28;20512;-67
2022/11/29 11:30:16;;;;;;;9.73;8.60;;;8.90;99.90;;;;;;4995522;28;20430;-67
2022/11/29 11:33:05;;;;;;;10.33;9.17;;;8.90;99.90;;;;;;4995724;28;20438;-67
2022/11/29 11:35:30;;;;;;;9.07;7.77;;;9.00;99.90;;;;;;4996494;28;20453;-65
2022/11/29 11:37:56;;;;;;;9.43;8.53;;;8.90;99.90;;;;;;4995280;28;20890;-65
2022/11/29 11:40:28;;;;;;;10.50;9.40;;;8.90;99.90;;;;;;4995965;28;20661;-65
2022/11/29 11:42:56;;;;;;;10.40;9.23;;;8.90;99.90;;;;;;4995382;28;20251;-65
2022/11/29 11:45:25;;;;;;;10.17;9.00;;;8.80;99.90;;;;;;4996232;28;20835;-66
2022/11/29 11:47:57;;;;;;;9.20;8.30;;;8.80;99.90;;;;;;4996033;28;20423;-65
2022/11/29 11:50:42;;;;;;;10.37;9.37;;;8.90;99.90;;;;;;4994782;28;20927;-66
2022/11/29 11:53:29;;;;;;;12.63;9.97;;;8.90;99.90;;;;;;4995922;28;20470;-66
2022/11/29 11:56:06;;;;;;;10.07;9.07;;;8.90;99.90;;;;;;5004329;28;20430;-66
2022/11/29 11:58:31;;;;;;;9.37;7.90;;;9.00;99.90;;;;;;4995441;28;20473;-65
2022/11/29 12:01:19;;;;;;;6.90;6.27;;;9.00;99.90;;;;;;4994921;28;20422;-66
2022/11/29 12:04:11;;;;;;;9.57;7.60;;;9.00;99.90;;;;;;4968895;28;20227;-67
2022/11/29 12:07:02;;;;;;;10.67;8.77;;;9.10;99.90;;;;;;4992607;28;20495;-68
2022/11/29 12:09:36;;;;;;;11.10;8.70;;;9.10;99.90;;;;;;4994729;28;20430;-66
2022/11/29 12:12:18;;;;;;;8.20;7.50;;;9.10;99.90;;;;;;4995234;28;20516;-66
2022/11/29 12:15:00;;;;;;;7.97;7.13;;;9.20;99.90;;;;;;4995084;28;20469;-65
2022/11/29 12:17:35;;;;;;;11.00;8.80;;;9.20;99.90;;;;;;4995293;28;20453;-66
2022/11/29 12:20:16;;;;;;;9.50;8.50;;;9.20;99.90;;;;;;4994263;28;20451;-65
2022/11/29 12:22:52;;;;;;;7.87;7.10;;;9.20;99.90;;;;;;4995337;28;20406;-66
2022/11/29 12:25:23;;;;;;;8.80;8.00;;;9.30;99.90;;;;;;4993821;28;20430;-66
2022/11/29 12:27:50;;;;;;;7.93;7.13;;;9.30;99.90;;;;;;4994808;28;20430;-66
2022/11/29 12:30:19;;;;;;;7.47;6.77;;;9.40;99.90;;;;;;4995035;28;20427;-66
2022/11/29 12:32:53;;;;;;;9.20;8.30;;;9.30;99.90;;;;;;4986257;28;20426;-66
2022/11/29 12:35:27;;;;;;;8.33;7.53;;;9.40;99.90;;;;;;4995223;28;20485;-65
2022/11/29 12:38:11;;;;;;;8.00;7.30;;;9.30;99.90;;;;;;4992944;28;20457;-66
2022/11/29 12:41:17;;;;;;;6.60;6.00;;;9.30;99.90;;;;;;4995013;28;20407;-65
2022/11/29 12:43:56;;;;;;;7.70;7.00;;;9.20;99.90;;;;;;4977160;28;20453;-66
2022/11/29 12:46:24;;;;;;;7.00;6.40;;;9.20;99.90;;;;;;4994899;28;20410;-65
2022/11/29 12:49:07;;;;;;;6.60;6.00;;;9.30;99.90;;;;;;4994178;28;20446;-65
2022/11/29 12:51:54;;;;;;;7.20;6.60;;;9.30;99.90;;;;;;4994203;28;20970;-66
2022/11/29 12:54:27;;;;;;;6.97;6.37;;;9.30;99.90;;;;;;4994767;28;20560;-66
2022/11/29 12:57:08;;;;;;;7.87;7.00;;;9.30;99.90;;;;;;4993752;28;20457;-65
2022/11/29 12:59:52;;;;;;;7.53;6.83;;;9.20;99.90;;;;;;4994439;28;20438;-65
2022/11/29 13:02:29;;;;;;;6.87;6.33;;;9.20;99.90;;;;;;4994233;28;20489;-66
2022/11/29 13:05:24;;;;;;;6.40;5.80;;;9.20;99.90;;;;;;4994729;28;20484;-65
2022/11/29 13:08:09;;;;;;;5.97;5.47;;;9.00;99.90;;;;;;4994158;28;20899;-65
2022/11/29 13:11:19;;;;;;;6.73;6.03;;;9.00;99.90;;;;;;4994222;28;20422;-66
2022/11/29 13:13:52;;;;;;;6.00;5.50;;;9.00;99.90;;;;;;4961562;28;20545;-66
2022/11/29 13:16:34;;;;;;;10.30;6.27;;;9.10;99.90;;;;;;4993732;28;20446;-67
2022/11/29 13:19:11;;;;;;;5.33;4.93;;;9.10;99.90;;;;;;4994222;28;20427;-66
2022/11/29 13:22:17;;;;;;;6.03;5.60;;;9.10;99.90;;;;;;4992769;28;20954;-66
2022/11/29 13:24:55;;;;;;;7.10;6.40;;;9.10;99.90;;;;;;4991032;28;20982;-66
2022/11/29 13:27:32;;;;;;;7.33;6.70;;;9.10;99.90;;;;;;4992862;28;20441;-66
2022/11/29 13:29:59;;;;;;;5.77;5.37;;;9.10;99.90;;;;;;4998723;28;20442;-67
2022/11/29 13:32:35;;;;;;;6.83;5.87;;;9.00;99.90;;;;;;4994266;28;20415;-66
2022/11/29 13:35:25;;;;;;;6.83;5.97;;;9.00;99.90;;;;;;4993301;28;20426;-68
2022/11/29 13:37:57;;;;;;;6.33;5.77;;;8.90;99.90;;;;;;4993384;28;20536;-67
2022/11/29 13:40:36;;;;;;;6.83;6.20;;;8.90;99.90;;;;;;4993142;28;20427;-67